createdAt,value
2023-02-23T00:00:28.619Z,9.88
2023-02-23T00:05:37.875Z,9.88
2023-02-23T00:10:41.092Z,9.88
2023-02-23T00:15:44.171Z,9.88
2023-02-23T00:20:57.670Z,9.90
2023-02-23T00:26:00.963Z,9.88
2023-02-23T00:31:04.540Z,9.90
2023-02-23T00:36:13.518Z,9.90
2023-02-23T00:41:20.355Z,9.86
2023-02-23T00:46:27.114Z,9.83
2023-02-23T00:51:32.688Z,9.86
2023-02-23T00:56:36.085Z,9.87
2023-02-23T01:01:41.879Z,9.87
2023-02-23T01:06:46.591Z,9.92
2023-02-23T01:11:49.903Z,9.95
2023-02-23T01:16:53.020Z,9.95
2023-02-23T01:21:57.566Z,9.94
2023-02-23T01:27:00.638Z,9.95
2023-02-23T01:32:05.021Z,9.96
2023-02-23T01:37:09.883Z,9.97
2023-02-23T01:42:15.153Z,9.97
2023-02-23T01:47:20.555Z,9.97
2023-02-23T01:52:25.219Z,9.98
2023-02-23T01:57:28.401Z,9.97
2023-02-23T02:02:37.340Z,9.98
2023-02-23T02:07:47.639Z,9.99
2023-02-23T02:12:56.419Z,9.97
2023-02-23T02:18:09.662Z,9.92
2023-02-23T02:23:48.545Z,9.90
2023-02-23T02:29:38.581Z,9.86
2023-02-23T02:35:12.424Z,9.82
2023-02-23T02:40:27.701Z,9.80
2023-02-23T02:45:38.950Z,9.84
2023-02-23T02:50:48.430Z,9.85
2023-02-23T02:55:59.870Z,9.87
2023-02-23T03:01:26.599Z,9.86
2023-02-23T03:06:53.505Z,9.88
2023-02-23T03:12:26.912Z,9.86
2023-02-23T03:17:54.118Z,9.87
2023-02-23T03:23:18.874Z,9.89
2023-02-23T03:28:45.929Z,9.91
2023-02-23T03:34:14.336Z,9.97
2023-02-23T03:39:41.848Z,10.01
2023-02-23T03:45:06.824Z,10.05
2023-02-23T03:50:34.009Z,10.10
2023-02-23T03:55:58.248Z,10.16
2023-02-23T04:01:23.834Z,10.18
2023-02-23T04:06:50.332Z,10.24
2023-02-23T04:12:16.532Z,10.25
2023-02-23T04:17:22.664Z,10.29
2023-02-23T04:22:26.648Z,10.31
2023-02-23T04:27:33.383Z,10.34
2023-02-23T04:32:38.362Z,10.38
2023-02-23T04:37:41.608Z,10.37
2023-02-23T04:42:44.932Z,10.39
2023-02-23T04:47:49.629Z,10.41
2023-02-23T04:52:53.400Z,10.42
2023-02-23T04:58:00.433Z,10.41
2023-02-23T05:03:05.545Z,10.42
2023-02-23T05:08:08.900Z,10.43
2023-02-23T05:13:12.081Z,10.44
2023-02-23T05:18:16.578Z,10.42
2023-02-23T05:23:21.713Z,10.40
2023-02-23T05:28:25.230Z,10.36
2023-02-23T05:33:29.981Z,10.32
2023-02-23T05:38:33.176Z,10.29
2023-02-23T05:43:36.472Z,10.29
2023-02-23T05:48:40.940Z,10.26
2023-02-23T05:53:44.088Z,10.20
2023-02-23T05:58:47.530Z,10.18
2023-02-23T06:03:52.303Z,10.15
2023-02-23T06:08:56.342Z,10.11
2023-02-23T06:14:00.682Z,10.10
2023-02-23T06:19:05.210Z,10.10
2023-02-23T06:24:08.332Z,10.09
2023-02-23T06:29:12.002Z,10.10
2023-02-23T06:34:16.891Z,10.12
2023-02-23T06:39:20.145Z,10.14
2023-02-23T06:44:23.457Z,10.17
2023-02-23T06:49:27.880Z,10.21
2023-02-23T06:54:30.925Z,10.26
2023-02-23T06:59:34.143Z,10.32
2023-02-23T07:04:38.736Z,10.36
2023-02-23T07:09:42.932Z,10.43
2023-02-23T07:14:46.212Z,10.50
2023-02-23T07:19:50.780Z,10.59
2023-02-23T07:24:53.892Z,10.64
2023-02-23T07:29:57.226Z,10.71
2023-02-23T07:35:01.922Z,10.79
2023-02-23T07:40:05.402Z,10.86
2023-02-23T07:45:10.033Z,10.93
2023-02-23T07:50:14.758Z,11.03
2023-02-23T07:55:17.924Z,11.10
2023-02-23T08:00:21.433Z,11.21
2023-02-23T08:05:26.678Z,11.29
2023-02-23T08:10:29.940Z,11.39
2023-02-23T08:15:33.198Z,11.48
2023-02-23T08:20:37.596Z,11.60
2023-02-23T08:25:40.996Z,11.71
2023-02-23T08:30:44.179Z,11.82
2023-02-23T08:35:49.000Z,11.93
2023-02-23T08:40:52.166Z,12.10
2023-02-23T08:45:55.402Z,12.29
2023-02-23T08:51:00.747Z,12.46
2023-02-23T08:56:06.201Z,12.57
2023-02-23T09:01:17.997Z,12.68
2023-02-23T09:06:25.507Z,12.87
2023-02-23T09:11:28.678Z,13.09
2023-02-23T09:16:32.417Z,13.29
2023-02-23T09:21:37.206Z,13.63
2023-02-23T09:26:45.629Z,14.08
2023-02-23T09:31:51.524Z,14.44
2023-02-23T09:36:56.553Z,14.57
2023-02-23T09:42:18.215Z,14.72
2023-02-23T09:47:32.818Z,14.89
2023-02-23T09:52:42.495Z,14.80
2023-02-23T09:57:48.553Z,14.83
2023-02-23T10:03:16.140Z,14.86
2023-02-23T10:08:34.886Z,14.98
2023-02-23T10:13:49.955Z,15.03
2023-02-23T10:19:01.904Z,15.09
2023-02-23T10:24:13.328Z,15.19
2023-02-23T10:29:27.686Z,15.40
2023-02-23T10:34:32.418Z,15.49
2023-02-23T10:39:37.338Z,15.57
2023-02-23T10:44:40.575Z,15.73
2023-02-23T10:49:47.440Z,15.70
2023-02-23T10:54:53.351Z,15.66
2023-02-23T11:00:27.935Z,15.84
2023-02-23T11:05:44.584Z,16.03
2023-02-23T11:10:59.316Z,16.07
2023-02-23T11:16:06.425Z,16.09
2023-02-23T11:21:23.021Z,16.09
2023-02-23T11:26:32.512Z,16.11
2023-02-23T11:31:39.564Z,16.24
2023-02-23T11:36:42.903Z,16.32
2023-02-23T11:41:48.015Z,16.40
2023-02-23T11:46:52.833Z,16.32
2023-02-23T11:51:56.292Z,16.38
2023-02-23T11:57:02.846Z,16.40
2023-02-23T12:02:26.406Z,16.40
2023-02-23T12:07:41.810Z,16.38
2023-02-23T12:12:55.043Z,16.44
2023-02-23T12:18:05.192Z,16.46
2023-02-23T12:23:13.843Z,16.43
2023-02-23T12:28:30.282Z,16.42
2023-02-23T12:33:39.876Z,16.46
2023-02-23T12:38:53.119Z,16.48
2023-02-23T12:44:03.663Z,16.49
2023-02-23T12:49:17.287Z,16.45
2023-02-23T12:54:32.582Z,16.38
2023-02-23T12:59:55.279Z,16.36
2023-02-23T13:05:26.802Z,16.34
2023-02-23T13:10:42.132Z,16.31
2023-02-23T13:16:01.255Z,16.20
2023-02-23T13:21:11.250Z,16.14
2023-02-23T13:26:25.049Z,16.13
2023-02-23T13:31:33.604Z,16.06
2023-02-23T13:36:38.033Z,15.95
2023-02-23T13:41:46.817Z,15.86
2023-02-23T13:46:58.826Z,15.83
2023-02-23T13:52:11.106Z,15.77
2023-02-23T13:57:16.847Z,15.75
2023-02-23T14:02:34.670Z,15.72
2023-02-23T14:07:44.424Z,15.69
2023-02-23T14:13:06.491Z,15.67
2023-02-23T14:18:35.246Z,15.65
2023-02-23T14:23:54.844Z,15.62
2023-02-23T14:29:26.774Z,15.55
2023-02-23T14:34:57.062Z,15.53
2023-02-23T14:40:45.118Z,15.49
2023-02-23T14:46:06.320Z,15.41
2023-02-23T14:51:26.241Z,15.39
2023-02-23T14:56:43.258Z,15.35
2023-02-23T15:01:47.875Z,15.28
2023-02-23T15:06:56.304Z,15.20
2023-02-23T15:12:13.704Z,15.08
2023-02-23T15:17:20.867Z,15.04
2023-02-23T15:22:29.957Z,14.95
2023-02-23T15:27:43.043Z,14.86
2023-02-23T15:32:46.432Z,14.77
2023-02-23T15:37:59.666Z,14.74
2023-02-23T15:43:14.705Z,14.54
2023-02-23T15:48:22.804Z,14.35
2023-02-23T15:53:32.033Z,14.11
2023-02-23T15:58:56.440Z,13.89
2023-02-23T16:04:03.549Z,13.69
2023-02-23T16:09:27.954Z,13.60
2023-02-23T16:14:35.520Z,13.44
2023-02-23T16:19:41.559Z,13.35
2023-02-23T16:24:46.736Z,13.31
2023-02-23T16:30:00.580Z,13.24
2023-02-23T16:35:11.495Z,13.09
2023-02-23T16:40:16.334Z,13.00
2023-02-23T16:45:22.556Z,12.90
2023-02-23T16:50:27.695Z,12.86
2023-02-23T16:55:39.461Z,12.81
2023-02-23T17:00:42.810Z,12.68
2023-02-23T17:05:57.077Z,12.64
2023-02-23T17:11:03.014Z,12.56
2023-02-23T17:16:07.997Z,12.54
2023-02-23T17:21:13.834Z,12.55
2023-02-23T17:26:28.134Z,12.55
2023-02-23T17:31:32.127Z,12.55
2023-02-23T17:36:35.491Z,12.56
2023-02-23T17:41:40.344Z,12.50
2023-02-23T17:46:43.974Z,12.51
2023-02-23T17:51:47.409Z,12.49
2023-02-23T17:56:52.318Z,12.49
2023-02-23T18:01:56.315Z,12.50
2023-02-23T18:06:59.855Z,12.50
2023-02-23T18:12:05.070Z,12.47
2023-02-23T18:17:08.216Z,12.43
2023-02-23T18:22:11.864Z,12.41
2023-02-23T18:27:16.554Z,12.37
2023-02-23T18:32:19.973Z,12.31
2023-02-23T18:37:25.374Z,12.25
2023-02-23T18:42:31.693Z,12.20
2023-02-23T18:47:35.138Z,12.12
2023-02-23T18:52:40.816Z,11.99
2023-02-23T18:57:45.688Z,11.93
2023-02-23T19:02:49.410Z,11.90
2023-02-23T19:07:52.842Z,11.92
2023-02-23T19:12:57.236Z,11.88
2023-02-23T19:18:00.386Z,11.83
2023-02-23T19:23:04.206Z,11.76
2023-02-23T19:28:10.012Z,11.73
2023-02-23T19:33:14.364Z,11.69
2023-02-23T19:38:17.483Z,11.65
2023-02-23T19:43:22.127Z,11.64
2023-02-23T19:48:27.534Z,11.67
2023-02-23T19:53:31.644Z,11.61
2023-02-23T19:58:39.029Z,11.63
2023-02-23T20:03:43.320Z,11.61
2023-02-23T20:08:48.305Z,11.54
2023-02-23T20:13:53.090Z,11.50
2023-02-23T20:18:57.036Z,11.41
2023-02-23T20:24:01.608Z,11.35
2023-02-23T20:29:10.965Z,11.30
2023-02-23T20:34:15.236Z,11.25
2023-02-23T20:39:19.388Z,11.21
2023-02-23T20:44:25.312Z,11.22
2023-02-23T20:49:29.765Z,11.20
2023-02-23T20:54:45.539Z,11.17
2023-02-23T20:59:52.994Z,11.16
2023-02-23T21:04:56.928Z,11.12
2023-02-23T21:10:05.512Z,11.09
2023-02-23T21:15:17.159Z,11.09
2023-02-23T21:20:30.148Z,11.10
2023-02-23T21:25:33.761Z,11.09
2023-02-23T21:30:41.695Z,11.09
2023-02-23T21:35:45.115Z,11.09
2023-02-23T21:40:49.286Z,11.05
2023-02-23T21:45:54.240Z,11.03
2023-02-23T21:51:03.956Z,11.03
2023-02-23T21:56:11.856Z,10.99
2023-02-23T22:01:19.752Z,10.97
2023-02-23T22:06:25.211Z,10.92
2023-02-23T22:11:30.001Z,10.89
2023-02-23T22:16:36.906Z,10.90
2023-02-23T22:21:41.730Z,10.88
2023-02-23T22:26:50.752Z,10.84
2023-02-23T22:31:55.643Z,10.81
2023-02-23T22:36:59.306Z,10.75
2023-02-23T22:42:09.378Z,10.70
2023-02-23T22:47:14.271Z,10.68
2023-02-23T22:52:17.550Z,10.64
2023-02-23T22:57:20.735Z,10.61
2023-02-23T23:02:25.287Z,10.60
2023-02-23T23:07:29.360Z,10.56
2023-02-23T23:12:34.399Z,10.54
2023-02-23T23:17:39.772Z,10.53
2023-02-23T23:22:43.075Z,10.53
2023-02-23T23:27:46.236Z,10.52
2023-02-23T23:32:50.989Z,10.49
2023-02-23T23:37:54.377Z,10.47
2023-02-23T23:42:57.755Z,10.43
2023-02-23T23:48:09.468Z,10.43
2023-02-23T23:53:14.597Z,10.41
2023-02-23T23:58:18.535Z,10.38
